Terminal Aerodrome Forecast
Issued by NWS Sterling, VA

Current Version | Previous Version | Text Only | Print | Product List | Glossary Off
Versions: 1 2 3 4 5 6 7 8 9 10 11 12 13 14 15 16 17 18 19 20 21 22 23 24

042
FTUS41 KLWX 241459 AAA
TAFDCA
TAF AMD
KDCA 241459Z 2415/2512 08008KT P6SM SCT020 BKN030 OVC040
     FM241800 12008G16KT P6SM BKN025 OVC050
     FM250000 12008G16KT P6SM BKN008 OVC025
     FM250300 10011G18KT 5SM -RA BKN008 OVC025
     FM251100 17008KT 3SM -RA BKN008 OVC025=

USA.gov is the U.S. government's official web portal to all federal, state and local government web resources and services.